Date,TemperatureHighF,TemperatureAvgF,TemperatureLowF,DewpointHighF,DewpointAvgF,DewpointLowF,HumidityHigh,HumidityAvg,HumidityLow,PressureMaxIn,PressureMinIn,WindSpeedMaxMPH,WindSpeedAvgMPH,GustSpeedMaxMPH,PrecipitationSumIn
2013-3-1,28,22,16,13,10,3,68,58,46,30.28,30.15,15,7,18,0.00
2013-3-2,30,18,8,7,4,-1,71,54,30,30.29,30.15,9,3,11,0.00
2013-3-3,32,22,12,11,5,0,63,47,32,30.15,30.00,11,4,13,0.00
2013-3-4,27,25,24,20,10,1,78,53,36,30.03,29.92,23,10,27,0.00
2013-3-5,27,25,23,21,19,16,81,77,72,30.20,29.94,17,8,21,0.00
2013-3-6,28,22,13,17,12,3,74,64,49,31.08,30.19,17,7,21,0.00
2013-3-7,34,26,14,16,12,5,68,54,44,29.94,29.85,10,5,11,0.00
2013-3-8,39,29,16,28,20,8,78,68,61,29.91,29.69,20,9,23,0.00
2013-3-9,37,34,31,33,30,23,87,84,73,29.69,29.28,24,10,30,0.30
2013-3-10,36,34,30,32,30,27,89,86,79,29.44,29.26,27,12,31,0.19
2013-3-11,30,28,24,27,24,19,89,84,82,30.03,29.28,24,10,29,0.01
2013-3-12,28,22,17,19,15,11,83,74,60,30.32,30.02,23,8,28,0.00
2013-3-13,30,21,14,13,7,3,73,56,35,30.54,30.32,16,6,21,0.00
2013-3-14,36,26,16,25,18,6,80,71,61,30.48,30.21,16,6,18,0.00
2013-3-15,34,31,27,29,26,20,87,81,73,30.22,29.99,11,4,12,0.11
2013-3-16,31,24,18,28,15,1,88,68,46,30.39,30.02,0,0,0,0.00
2013-3-17,29,20,9,14,4,-5,64,51,43,30.42,30.12,21,7,24,0.00
2013-3-18,31,22,12,27,13,2,85,69,58,30.13,29.82,25,12,32,0.00
2013-3-19,22,13,7,4,-2,-8,65,51,41,30.32,29.97,27,14,34,0.00
2013-3-20,19,11,4,-1,-6,-11,52,45,41,30.36,30.26,22,11,30,0.00
2013-3-21,26,15,3,5,-2,-8,60,48,37,30.31,30.22,12,3,15,0.00
2013-3-22,35,21,7,11,4,-4,63,48,33,30.29,30.22,7,3,8,0.00
2013-3-23,37,28,16,19,13,4,64,53,42,30.34,30.25,8,3,9,0.00
2013-3-24,31,29,26,21,18,15,71,64,59,30.28,29.88,21,7,24,0.00
2013-3-25,35,28,21,19,15,11,69,56,45,30.16,29.94,22,9,25,0.00
2013-3-26,39,31,24,23,17,11,70,58,47,30.26,30.16,11,4,16,0.00
2013-3-27,43,32,23,21,15,12,63,48,29,30.32,30.26,9,3,11,0.00
2013-3-28,44,34,21,21,15,10,66,47,32,30.33,30.26,8,2,9,0.00
2013-3-29,48,37,26,31,22,12,70,56,46,30.30,30.11,11,4,12,0.00
2013-3-30,45,41,35,40,34,28,88,77,66,30.11,29.83,15,5,20,0.12
2013-3-31,39,33,27,31,23,6,88,68,29,30.00,29.77,24,10,34,0.00